createdAt,value
2018-06-24T00:00:29.050Z,92.60
2018-06-24T00:03:05.402Z,92.90
2018-06-24T00:05:42.413Z,92.50
2018-06-24T00:08:19.254Z,92.40
2018-06-24T00:10:57.870Z,92.40
2018-06-24T00:13:42.558Z,92.50
2018-06-24T00:16:19.649Z,92.00
2018-06-24T00:18:56.479Z,92.10
2018-06-24T00:21:34.055Z,92.20
2018-06-24T00:24:10.534Z,91.80
2018-06-24T00:26:48.627Z,91.90
2018-06-24T00:32:03.712Z,91.80
2018-06-24T00:34:40.247Z,91.70
2018-06-24T00:37:18.780Z,91.50
2018-06-24T00:39:55.368Z,92.00
2018-06-24T00:42:31.466Z,91.70
2018-06-24T00:45:10.093Z,91.60
2018-06-24T00:47:49.213Z,91.20
2018-06-24T00:50:28.165Z,91.50
2018-06-24T00:53:05.246Z,91.30
2018-06-24T00:55:44.001Z,91.60
2018-06-24T00:58:20.385Z,91.30
2018-06-24T01:00:58.954Z,91.60
2018-06-24T01:03:37.569Z,91.40
2018-06-24T01:06:14.623Z,91.20
2018-06-24T01:08:53.345Z,91.40
2018-06-24T01:11:30.064Z,91.10
2018-06-24T01:14:06.818Z,91.10
2018-06-24T01:16:43.707Z,91.20
2018-06-24T01:19:20.915Z,91.30
2018-06-24T01:21:58.069Z,91.30
2018-06-24T01:24:34.386Z,91.30
2018-06-24T01:27:10.541Z,91.10
2018-06-24T01:29:47.894Z,91.20
2018-06-24T01:32:24.982Z,91.30
2018-06-24T01:35:01.370Z,91.30
2018-06-24T01:37:37.158Z,91.10
2018-06-24T01:40:13.770Z,91.30
2018-06-24T01:42:50.914Z,91.30
2018-06-24T01:45:27.574Z,91.20
2018-06-24T01:48:04.775Z,91.00
2018-06-24T01:50:42.101Z,90.80
2018-06-24T01:53:18.808Z,90.90
2018-06-24T01:56:02.809Z,91.30
2018-06-24T01:58:40.804Z,91.00
2018-06-24T02:01:18.982Z,90.70
2018-06-24T02:03:56.542Z,91.00
2018-06-24T02:06:33.755Z,91.20
2018-06-24T02:09:13.563Z,91.10
2018-06-24T02:11:50.274Z,90.70
2018-06-24T02:14:27.901Z,90.60
2018-06-24T02:17:04.852Z,90.60
2018-06-24T02:19:41.613Z,90.90
2018-06-24T02:22:18.181Z,90.90
2018-06-24T02:24:54.468Z,90.80
2018-06-24T02:27:31.210Z,90.80
2018-06-24T02:30:07.631Z,90.70
2018-06-24T02:32:46.093Z,90.80
2018-06-24T02:35:23.625Z,91.20
2018-06-24T02:38:00.438Z,91.40
2018-06-24T02:40:36.924Z,91.40
2018-06-24T02:43:14.998Z,91.50
2018-06-24T02:45:53.237Z,91.60
2018-06-24T02:48:31.681Z,92.00
2018-06-24T02:51:08.903Z,91.90
2018-06-24T02:53:45.215Z,92.50
2018-06-24T02:56:23.789Z,92.70
2018-06-24T02:59:01.162Z,92.60
2018-06-24T03:01:37.785Z,92.90
2018-06-24T03:04:16.237Z,93.10
2018-06-24T03:06:53.519Z,93.50
2018-06-24T03:09:30.938Z,93.60
2018-06-24T03:12:08.730Z,94.00
2018-06-24T03:14:46.113Z,94.10
2018-06-24T03:17:23.313Z,94.60
2018-06-24T03:20:00.717Z,94.60
2018-06-24T03:22:37.630Z,94.70
2018-06-24T03:25:14.290Z,94.50
2018-06-24T03:27:50.989Z,94.70
2018-06-24T03:30:29.137Z,95.00
2018-06-24T03:33:06.026Z,95.00
2018-06-24T03:35:43.466Z,95.00
2018-06-24T03:38:20.335Z,95.30
2018-06-24T03:40:58.456Z,95.00
2018-06-24T03:43:36.353Z,94.70
2018-06-24T03:48:52.276Z,94.40
2018-06-24T03:51:30.761Z,94.30
2018-06-24T03:54:07.068Z,94.50
2018-06-24T03:56:44.387Z,94.20
2018-06-24T03:59:21.205Z,93.90
2018-06-24T04:01:59.681Z,94.00
2018-06-24T04:04:37.391Z,93.80
2018-06-24T04:07:15.133Z,93.50
2018-06-24T04:09:51.233Z,93.50
2018-06-24T04:12:27.412Z,93.40
2018-06-24T04:15:05.192Z,93.50
2018-06-24T04:17:42.135Z,93.40
2018-06-24T04:20:19.236Z,93.30
2018-06-24T04:22:56.743Z,93.40
2018-06-24T04:25:34.422Z,93.40
2018-06-24T04:28:12.334Z,92.90
2018-06-24T04:30:48.301Z,93.10
2018-06-24T04:33:25.661Z,93.10
2018-06-24T04:36:02.040Z,93.00
2018-06-24T04:38:38.728Z,92.80
2018-06-24T04:41:15.939Z,92.50
2018-06-24T04:43:53.396Z,92.90
2018-06-24T04:46:29.546Z,92.70
2018-06-24T04:49:05.944Z,92.90
2018-06-24T04:51:44.362Z,92.50
2018-06-24T04:54:21.805Z,92.10
2018-06-24T04:56:58.750Z,92.50
2018-06-24T04:59:35.881Z,92.40
2018-06-24T05:02:14.397Z,92.10
2018-06-24T05:04:52.372Z,91.70
2018-06-24T05:07:29.884Z,91.40
2018-06-24T05:10:06.126Z,91.70
2018-06-24T05:12:42.901Z,91.40
2018-06-24T05:15:21.310Z,91.60
2018-06-24T05:17:57.989Z,91.50
2018-06-24T05:20:36.032Z,91.50
2018-06-24T05:23:13.626Z,91.60
2018-06-24T05:25:50.728Z,91.40
2018-06-24T05:28:29.029Z,91.20
2018-06-24T05:31:06.675Z,91.50
2018-06-24T05:33:50.077Z,91.50
2018-06-24T05:36:26.865Z,91.40
2018-06-24T05:39:06.493Z,91.50
2018-06-24T05:41:44.427Z,91.60
2018-06-24T05:44:22.298Z,91.50
2018-06-24T05:47:00.401Z,91.20
2018-06-24T05:49:37.998Z,90.90
2018-06-24T05:52:15.541Z,91.20
2018-06-24T05:54:52.275Z,91.00
2018-06-24T05:57:29.069Z,91.00
2018-06-24T06:00:06.445Z,91.30
2018-06-24T06:02:43.507Z,91.20
2018-06-24T06:05:20.578Z,91.20
2018-06-24T06:07:57.234Z,90.90
2018-06-24T06:10:35.774Z,90.80
2018-06-24T06:13:14.927Z,90.50
2018-06-24T06:15:51.808Z,90.50
2018-06-24T06:18:28.435Z,90.30
2018-06-24T06:21:05.439Z,90.40
2018-06-24T06:23:43.852Z,90.50
2018-06-24T06:26:21.025Z,90.50
2018-06-24T06:28:58.412Z,89.80
2018-06-24T06:31:36.381Z,89.60
2018-06-24T06:34:13.449Z,89.30
2018-06-24T06:36:51.862Z,88.60
2018-06-24T06:39:29.868Z,88.70
2018-06-24T06:42:06.885Z,88.80
2018-06-24T06:44:43.804Z,89.50
2018-06-24T06:47:21.598Z,89.90
2018-06-24T06:49:58.702Z,90.10
2018-06-24T06:52:36.815Z,90.30
2018-06-24T06:55:14.497Z,89.90
2018-06-24T06:57:52.160Z,90.10
2018-06-24T07:00:28.717Z,90.50
2018-06-24T07:03:06.648Z,90.90
2018-06-24T07:05:43.474Z,90.40
2018-06-24T07:08:21.469Z,89.80
2018-06-24T07:10:59.986Z,88.60
2018-06-24T07:13:37.977Z,88.60
2018-06-24T07:16:14.898Z,88.00
2018-06-24T07:18:52.179Z,86.80
2018-06-24T07:21:29.205Z,86.80
2018-06-24T07:24:05.829Z,84.60
2018-06-24T07:26:49.570Z,84.50
2018-06-24T07:29:31.006Z,83.90
2018-06-24T07:32:12.264Z,82.20
2018-06-24T07:34:50.659Z,80.10
2018-06-24T07:37:28.601Z,80.90
2018-06-24T07:40:06.537Z,79.10
2018-06-24T07:42:44.696Z,76.40
2018-06-24T07:45:23.859Z,78.00
2018-06-24T07:48:01.080Z,77.40
2018-06-24T07:50:37.854Z,76.80
2018-06-24T07:53:15.345Z,77.70
2018-06-24T07:55:51.753Z,78.70
2018-06-24T07:58:30.195Z,79.60
2018-06-24T08:01:07.433Z,80.10
2018-06-24T08:03:45.530Z,81.00
2018-06-24T08:06:24.111Z,81.40
2018-06-24T08:09:00.932Z,81.10
2018-06-24T08:11:40.021Z,76.70
2018-06-24T08:14:17.064Z,73.50
2018-06-24T08:16:54.378Z,71.20
2018-06-24T08:19:31.011Z,71.50
2018-06-24T08:22:08.728Z,70.60
2018-06-24T08:24:46.496Z,71.00
2018-06-24T08:27:22.483Z,68.80
2018-06-24T08:29:59.075Z,69.20
2018-06-24T08:32:36.260Z,70.00
2018-06-24T08:37:50.728Z,70.00
2018-06-24T08:40:27.520Z,69.10
2018-06-24T08:43:04.401Z,68.00
2018-06-24T08:45:41.166Z,69.00
2018-06-24T08:48:17.756Z,70.30
2018-06-24T08:51:01.072Z,71.30
2018-06-24T08:53:39.452Z,71.20
2018-06-24T08:56:16.108Z,70.40
2018-06-24T08:58:53.064Z,70.00
2018-06-24T09:01:30.783Z,68.40
2018-06-24T09:04:06.869Z,69.80
2018-06-24T09:06:44.716Z,68.40
2018-06-24T09:09:21.354Z,68.60
2018-06-24T09:11:59.050Z,69.40
2018-06-24T09:14:36.938Z,67.60
2018-06-24T09:17:14.193Z,67.50
2018-06-24T09:19:50.096Z,67.70
2018-06-24T09:22:27.151Z,68.00
2018-06-24T09:25:04.537Z,68.00
2018-06-24T09:27:41.149Z,67.70
2018-06-24T09:30:17.877Z,67.40
2018-06-24T09:32:56.211Z,68.40
2018-06-24T09:35:33.293Z,67.80
2018-06-24T09:38:10.652Z,66.70
2018-06-24T09:40:47.978Z,65.30
2018-06-24T09:43:25.104Z,65.10
2018-06-24T09:46:02.213Z,64.90
2018-06-24T09:48:39.442Z,65.00
2018-06-24T09:51:17.260Z,66.00
2018-06-24T09:53:54.426Z,65.90
2018-06-24T09:56:30.870Z,67.20
2018-06-24T09:59:07.870Z,66.80
2018-06-24T10:01:45.099Z,66.50
2018-06-24T10:04:22.341Z,65.00
2018-06-24T10:06:59.623Z,64.20
2018-06-24T10:09:36.107Z,66.30
2018-06-24T10:12:12.903Z,64.80
2018-06-24T10:14:50.702Z,64.40
2018-06-24T10:17:28.015Z,64.60
2018-06-24T10:20:08.582Z,64.90
2018-06-24T10:22:45.997Z,64.70
2018-06-24T10:25:23.797Z,64.30
2018-06-24T10:28:00.210Z,62.70
2018-06-24T10:30:38.864Z,63.20
2018-06-24T10:33:17.176Z,63.50
2018-06-24T10:35:55.281Z,64.50
2018-06-24T10:38:33.406Z,62.40
2018-06-24T10:41:12.617Z,62.70
2018-06-24T10:43:50.810Z,63.30
2018-06-24T10:46:29.442Z,63.10
2018-06-24T10:49:05.979Z,63.80
2018-06-24T10:51:44.148Z,64.80
2018-06-24T10:54:21.574Z,63.40
2018-06-24T10:56:58.877Z,61.80
2018-06-24T10:59:35.606Z,62.60
2018-06-24T11:02:13.047Z,61.30
2018-06-24T11:04:50.637Z,62.30
2018-06-24T11:07:28.537Z,60.80
2018-06-24T11:10:06.011Z,61.90
2018-06-24T11:12:42.966Z,63.90
2018-06-24T11:15:20.731Z,63.10
2018-06-24T11:17:58.973Z,65.00
2018-06-24T11:20:36.455Z,66.30
2018-06-24T11:23:13.087Z,66.10
2018-06-24T11:25:50.400Z,67.30
2018-06-24T11:28:27.822Z,67.40
2018-06-24T11:31:06.309Z,67.90
2018-06-24T11:33:44.034Z,68.70
2018-06-24T11:36:20.606Z,69.30
2018-06-24T11:38:58.605Z,67.70
2018-06-24T11:41:38.016Z,67.60
2018-06-24T11:44:15.081Z,67.10
2018-06-24T11:46:51.564Z,67.60
2018-06-24T11:49:29.234Z,67.50
2018-06-24T11:52:07.289Z,66.70
2018-06-24T11:54:45.139Z,66.40
2018-06-24T11:57:23.086Z,66.40
2018-06-24T11:59:59.219Z,67.50
2018-06-24T12:02:37.955Z,67.70
2018-06-24T12:05:16.008Z,68.00
2018-06-24T12:07:54.371Z,64.30
2018-06-24T12:10:32.858Z,61.60
2018-06-24T12:13:10.576Z,59.40
2018-06-24T12:15:49.251Z,59.90
2018-06-24T12:18:26.750Z,61.60
2018-06-24T12:21:04.723Z,62.00
2018-06-24T12:23:41.677Z,62.80
2018-06-24T12:26:19.772Z,64.00
2018-06-24T12:28:58.059Z,64.40
2018-06-24T12:31:34.400Z,64.50
2018-06-24T12:34:13.359Z,65.30
2018-06-24T12:36:49.855Z,64.80
2018-06-24T12:39:27.545Z,64.00
2018-06-24T12:42:05.378Z,64.40
2018-06-24T12:44:43.706Z,64.40
2018-06-24T12:47:21.001Z,64.30
2018-06-24T12:49:57.926Z,63.60
2018-06-24T12:52:35.007Z,64.10
2018-06-24T12:55:11.754Z,63.70
2018-06-24T12:57:49.371Z,64.00
2018-06-24T13:00:27.845Z,65.20
2018-06-24T13:03:05.227Z,63.20
2018-06-24T13:05:41.855Z,62.80
2018-06-24T13:08:19.593Z,62.10
2018-06-24T13:10:56.780Z,60.80
2018-06-24T13:13:34.205Z,61.30
2018-06-24T13:16:10.038Z,59.50
2018-06-24T13:18:47.771Z,57.30
2018-06-24T13:21:24.828Z,58.80
2018-06-24T13:24:02.969Z,58.40
2018-06-24T13:26:40.378Z,58.60
2018-06-24T13:29:18.497Z,56.80
2018-06-24T13:31:55.092Z,58.30
2018-06-24T13:34:32.884Z,58.20
2018-06-24T13:37:10.422Z,57.80
2018-06-24T13:39:48.277Z,58.80
2018-06-24T13:42:24.993Z,55.80
2018-06-24T13:45:04.973Z,57.90
2018-06-24T13:47:43.563Z,57.30
2018-06-24T13:50:21.668Z,57.10
2018-06-24T13:52:58.339Z,57.00
2018-06-24T13:55:36.701Z,58.00
2018-06-24T13:58:14.942Z,57.70
2018-06-24T14:00:51.048Z,56.40
2018-06-24T14:03:28.313Z,56.40
2018-06-24T14:06:05.441Z,54.80
2018-06-24T14:08:43.796Z,53.10
2018-06-24T14:11:22.452Z,54.00
2018-06-24T14:13:59.823Z,53.70
2018-06-24T14:16:37.414Z,54.40
2018-06-24T14:19:15.161Z,54.10
2018-06-24T14:21:52.497Z,54.30
2018-06-24T14:24:28.913Z,54.30
2018-06-24T14:27:05.322Z,53.40
2018-06-24T14:29:41.701Z,54.60
2018-06-24T14:32:19.356Z,55.30
2018-06-24T14:34:56.502Z,55.20
2018-06-24T14:37:38.217Z,54.50
2018-06-24T14:40:16.325Z,54.50
2018-06-24T14:42:54.348Z,53.70
2018-06-24T14:45:31.265Z,51.70
2018-06-24T14:48:09.507Z,54.20
2018-06-24T14:50:47.734Z,52.90
2018-06-24T14:53:27.823Z,54.20
2018-06-24T14:56:06.707Z,53.90
2018-06-24T14:58:46.666Z,55.20
2018-06-24T15:01:24.881Z,55.20
2018-06-24T15:04:02.352Z,56.80
2018-06-24T15:06:39.625Z,57.20
2018-06-24T15:09:17.376Z,56.70
2018-06-24T15:11:54.267Z,57.70
2018-06-24T15:14:31.417Z,57.90
2018-06-24T15:17:08.736Z,59.20
2018-06-24T15:19:46.725Z,59.20
2018-06-24T15:22:24.177Z,59.60
2018-06-24T15:24:59.929Z,60.80
2018-06-24T15:27:36.900Z,60.40
2018-06-24T15:30:14.462Z,60.80
2018-06-24T15:32:51.689Z,61.30
2018-06-24T15:35:29.657Z,61.60
2018-06-24T15:38:06.645Z,60.70
2018-06-24T15:40:44.114Z,61.20
2018-06-24T15:43:21.926Z,62.20
2018-06-24T15:46:00.038Z,61.10
2018-06-24T15:48:37.859Z,60.30
2018-06-24T15:51:17.457Z,59.30
2018-06-24T15:53:55.950Z,56.90
2018-06-24T15:56:32.360Z,57.70
2018-06-24T15:59:11.477Z,58.10
2018-06-24T16:01:49.190Z,58.70
2018-06-24T16:04:26.000Z,59.60
2018-06-24T16:07:03.311Z,60.20
2018-06-24T16:09:40.627Z,61.50
2018-06-24T16:12:17.740Z,61.80
2018-06-24T16:14:53.945Z,62.00
2018-06-24T16:17:32.321Z,62.80
2018-06-24T16:20:10.031Z,64.50
2018-06-24T16:22:46.789Z,65.00
2018-06-24T16:25:23.808Z,66.10
2018-06-24T16:28:01.305Z,67.50
2018-06-24T16:30:38.852Z,68.10
2018-06-24T16:33:15.026Z,68.20
2018-06-24T16:35:52.153Z,68.10
2018-06-24T16:38:29.855Z,68.20
2018-06-24T16:41:06.377Z,68.30
2018-06-24T16:43:43.970Z,69.20
2018-06-24T16:46:22.951Z,68.30
2018-06-24T16:48:59.634Z,68.50
2018-06-24T16:51:36.925Z,67.60
2018-06-24T16:54:13.175Z,68.10
2018-06-24T16:56:51.126Z,67.40
2018-06-24T16:59:27.301Z,66.80
2018-06-24T17:02:04.734Z,66.60
2018-06-24T17:04:43.147Z,65.50
2018-06-24T17:07:20.982Z,65.60
2018-06-24T17:10:01.887Z,65.60
2018-06-24T17:12:38.977Z,65.40
2018-06-24T17:15:17.235Z,65.40
2018-06-24T17:17:53.820Z,66.20
2018-06-24T17:20:31.305Z,66.50
2018-06-24T17:23:09.656Z,66.10
2018-06-24T17:25:47.929Z,66.10
2018-06-24T17:28:24.729Z,66.80
2018-06-24T17:31:01.226Z,67.10
2018-06-24T17:33:37.938Z,67.00
2018-06-24T17:36:13.593Z,67.20
2018-06-24T17:38:51.975Z,67.30
2018-06-24T17:41:29.442Z,67.50
2018-06-24T17:44:05.768Z,68.10
2018-06-24T17:46:42.709Z,68.30
2018-06-24T17:49:20.208Z,69.40
2018-06-24T17:54:34.894Z,70.00
2018-06-24T17:57:12.366Z,70.40
2018-06-24T17:59:48.348Z,71.00
2018-06-24T18:02:26.399Z,70.80
2018-06-24T18:05:03.156Z,70.10
2018-06-24T18:07:39.160Z,70.20
2018-06-24T18:10:17.816Z,69.90
2018-06-24T18:12:53.946Z,69.70
2018-06-24T18:15:32.707Z,70.50
2018-06-24T18:18:08.818Z,71.00
2018-06-24T18:20:46.245Z,71.30
2018-06-24T18:23:24.091Z,71.30
2018-06-24T18:26:00.590Z,70.80
2018-06-24T18:28:38.008Z,71.80
2018-06-24T18:31:15.155Z,71.90
2018-06-24T18:33:52.835Z,71.30
2018-06-24T18:36:29.225Z,72.20
2018-06-24T18:39:08.566Z,72.00
2018-06-24T18:41:44.902Z,72.90
2018-06-24T18:44:23.365Z,73.30
2018-06-24T18:47:00.129Z,73.10
2018-06-24T18:49:35.930Z,73.60
2018-06-24T18:52:13.398Z,74.50
2018-06-24T18:54:50.908Z,74.10
2018-06-24T18:57:28.326Z,74.70
2018-06-24T19:00:06.449Z,74.70
2018-06-24T19:02:42.664Z,75.20
2018-06-24T19:05:20.094Z,76.20
2018-06-24T19:07:56.281Z,76.00
2018-06-24T19:10:32.829Z,76.40
2018-06-24T19:13:09.783Z,76.20
2018-06-24T19:15:46.478Z,76.40
2018-06-24T19:18:24.231Z,76.60
2018-06-24T19:21:01.090Z,76.90
2018-06-24T19:23:38.881Z,77.30
2018-06-24T19:26:16.929Z,77.30
2018-06-24T19:28:53.436Z,77.40
2018-06-24T19:31:31.717Z,77.40
2018-06-24T19:34:08.440Z,77.40
2018-06-24T19:36:45.809Z,77.30
2018-06-24T19:39:22.473Z,78.00
2018-06-24T19:42:00.191Z,78.10
2018-06-24T19:44:39.118Z,78.50
2018-06-24T19:47:15.624Z,78.70
2018-06-24T19:49:51.910Z,79.00
2018-06-24T19:52:29.122Z,79.20
2018-06-24T19:55:06.178Z,79.70
2018-06-24T19:57:43.160Z,79.50
2018-06-24T20:00:18.958Z,79.90
2018-06-24T20:02:55.381Z,79.70
2018-06-24T20:05:31.954Z,80.10
2018-06-24T20:08:09.977Z,80.00
2018-06-24T20:10:46.701Z,80.40
2018-06-24T20:13:24.527Z,80.80
2018-06-24T20:16:01.912Z,81.10
2018-06-24T20:18:38.344Z,81.10
2018-06-24T20:21:14.959Z,81.60
2018-06-24T20:23:51.789Z,81.70
2018-06-24T20:26:29.309Z,81.70
2018-06-24T20:29:07.345Z,81.80
2018-06-24T20:31:44.517Z,82.50
2018-06-24T20:34:21.664Z,82.70
2018-06-24T20:36:59.265Z,82.90
2018-06-24T20:39:35.365Z,83.20
2018-06-24T20:42:13.992Z,84.00
2018-06-24T20:44:52.534Z,83.90
2018-06-24T20:47:30.398Z,83.80
2018-06-24T20:50:08.437Z,84.40
2018-06-24T20:52:45.038Z,83.90
2018-06-24T20:55:21.304Z,84.40
2018-06-24T20:57:59.698Z,82.70
2018-06-24T21:00:37.718Z,84.60
2018-06-24T21:05:51.082Z,85.20
2018-06-24T21:08:29.048Z,85.20
2018-06-24T21:11:05.747Z,85.40
2018-06-24T21:13:46.291Z,85.60
2018-06-24T21:19:04.740Z,85.90
2018-06-24T21:21:43.439Z,86.40
2018-06-24T21:24:23.488Z,87.10
2018-06-24T21:27:01.202Z,87.20
2018-06-24T21:29:39.708Z,87.20
2018-06-24T21:32:16.251Z,88.40
2018-06-24T21:34:55.755Z,88.00
2018-06-24T21:37:32.302Z,87.80
2018-06-24T21:40:10.682Z,87.90
2018-06-24T21:42:47.549Z,87.90
2018-06-24T21:45:24.162Z,88.00
2018-06-24T21:48:01.244Z,88.70
2018-06-24T21:50:37.786Z,88.50
2018-06-24T21:53:14.884Z,88.80
2018-06-24T21:55:51.454Z,89.10
2018-06-24T21:58:29.054Z,88.80
2018-06-24T22:01:05.142Z,89.20
2018-06-24T22:03:41.524Z,89.10
2018-06-24T22:06:18.251Z,89.00
2018-06-24T22:08:54.872Z,89.70
2018-06-24T22:11:30.855Z,89.40
2018-06-24T22:14:08.286Z,89.60
2018-06-24T22:16:45.298Z,89.80
2018-06-24T22:19:24.228Z,89.10
2018-06-24T22:22:02.396Z,89.60
2018-06-24T22:24:39.639Z,89.70
2018-06-24T22:29:53.098Z,89.90
2018-06-24T22:32:31.376Z,90.10
2018-06-24T22:35:08.089Z,90.10
2018-06-24T22:37:44.520Z,90.30
2018-06-24T22:40:22.161Z,90.50
2018-06-24T22:42:59.044Z,90.40
2018-06-24T22:45:36.155Z,90.10
2018-06-24T22:48:12.887Z,90.20
2018-06-24T22:53:29.322Z,90.50
2018-06-24T22:56:06.964Z,90.60
2018-06-24T22:58:54.362Z,90.50
2018-06-24T23:01:33.246Z,90.50
2018-06-24T23:04:09.757Z,90.30
2018-06-24T23:06:46.340Z,90.80
2018-06-24T23:09:23.838Z,90.60
2018-06-24T23:12:00.458Z,90.60
2018-06-24T23:14:36.929Z,90.70
2018-06-24T23:17:14.685Z,90.50
2018-06-24T23:19:52.153Z,90.70
2018-06-24T23:22:29.977Z,90.70
2018-06-24T23:25:08.066Z,90.80
2018-06-24T23:27:45.585Z,91.20
2018-06-24T23:30:22.597Z,91.30
2018-06-24T23:32:59.357Z,91.30
2018-06-24T23:35:36.142Z,91.40
2018-06-24T23:38:12.478Z,91.40
2018-06-24T23:40:48.656Z,91.80
2018-06-24T23:43:26.227Z,91.90
2018-06-24T23:46:04.605Z,92.20
2018-06-24T23:48:41.575Z,92.70
2018-06-24T23:51:17.703Z,92.80
2018-06-24T23:53:55.576Z,93.20
2018-06-24T23:56:32.949Z,92.80
2018-06-24T23:59:09.498Z,93.20
